createdAt,value
2023-01-07T00:02:08.392Z,17.10
2023-01-07T00:05:10.957Z,16.42
2023-01-07T00:08:13.233Z,17.27
2023-01-07T00:11:20.077Z,15.30
2023-01-07T00:14:22.324Z,16.08
2023-01-07T00:17:24.893Z,15.85
2023-01-07T00:20:27.125Z,15.70
2023-01-07T00:23:31.308Z,16.23
2023-01-07T00:26:36.423Z,16.83
2023-01-07T00:29:39.136Z,16.30
2023-01-07T00:33:01.793Z,16.48
2023-01-07T00:36:10.193Z,16.45
2023-01-07T00:39:20.691Z,15.55
2023-01-07T00:42:41.817Z,15.95
2023-01-07T00:45:44.403Z,15.10
2023-01-07T00:48:47.575Z,15.77
2023-01-07T00:51:50.836Z,14.43
2023-01-07T00:54:53.365Z,15.90
2023-01-07T00:57:56.037Z,16.20
2023-01-07T01:01:00.954Z,16.77
2023-01-07T01:04:03.342Z,16.48
2023-01-07T01:07:07.121Z,16.00
2023-01-07T01:10:13.290Z,15.32
2023-01-07T01:13:18.429Z,16.92
2023-01-07T01:16:20.962Z,16.10
2023-01-07T01:19:24.236Z,17.40
2023-01-07T01:22:26.480Z,19.48
2023-01-07T01:25:28.991Z,19.20
2023-01-07T01:28:31.783Z,19.52
2023-01-07T01:31:34.400Z,20.92
2023-01-07T01:34:36.706Z,21.17
2023-01-07T01:37:39.249Z,22.27
2023-01-07T01:40:41.955Z,22.65
2023-01-07T01:43:45.520Z,23.00
2023-01-07T01:46:49.007Z,23.62
2023-01-07T01:50:15.619Z,23.83
2023-01-07T01:53:28.472Z,24.35
2023-01-07T01:56:35.906Z,24.67
2023-01-07T01:59:42.228Z,23.98
2023-01-07T02:02:50.721Z,24.87
2023-01-07T02:05:53.816Z,25.02
2023-01-07T02:08:56.220Z,25.15
2023-01-07T02:12:27.748Z,24.02
2023-01-07T02:15:57.369Z,24.65
2023-01-07T02:19:08.272Z,25.02
2023-01-07T02:22:28.817Z,24.15
2023-01-07T02:26:08.007Z,25.95
2023-01-07T02:29:44.135Z,25.95
2023-01-07T02:33:17.684Z,24.75
2023-01-07T02:36:32.194Z,25.00
2023-01-07T02:39:57.302Z,24.55
2023-01-07T02:43:11.889Z,24.05
2023-01-07T02:46:27.739Z,23.05
2023-01-07T02:49:29.984Z,23.60
2023-01-07T02:52:34.420Z,22.42
2023-01-07T02:56:01.329Z,22.45
2023-01-07T02:59:28.592Z,21.25
2023-01-07T03:02:48.271Z,21.60
2023-01-07T03:06:19.440Z,21.17
2023-01-07T03:09:32.675Z,19.65
2023-01-07T03:12:42.571Z,18.67
2023-01-07T03:15:50.835Z,17.02
2023-01-07T03:19:00.894Z,17.92
2023-01-07T03:22:08.280Z,16.00
2023-01-07T03:25:13.255Z,16.90
2023-01-07T03:28:20.459Z,16.40
2023-01-07T03:31:23.105Z,16.27
2023-01-07T03:34:28.164Z,14.45
2023-01-07T03:37:32.567Z,15.43
2023-01-07T03:40:35.123Z,15.13
2023-01-07T03:43:37.786Z,15.63
2023-01-07T03:46:40.859Z,16.40
2023-01-07T03:49:43.498Z,16.70
2023-01-07T03:52:48.731Z,15.95
2023-01-07T03:55:51.935Z,15.40
2023-01-07T03:58:54.499Z,17.00
2023-01-07T04:01:58.480Z,16.92
2023-01-07T04:05:01.623Z,16.85
2023-01-07T04:08:04.114Z,20.33
2023-01-07T04:11:06.986Z,18.77
2023-01-07T04:14:09.566Z,19.42
2023-01-07T04:17:12.205Z,20.88
2023-01-07T04:20:14.507Z,23.27
2023-01-07T04:23:17.487Z,22.20
2023-01-07T04:26:19.970Z,23.05
2023-01-07T04:29:23.173Z,21.37
2023-01-07T04:32:25.448Z,22.42
2023-01-07T04:35:27.940Z,21.87
2023-01-07T04:38:30.281Z,22.15
2023-01-07T04:41:32.791Z,21.48
2023-01-07T04:44:35.179Z,22.23
2023-01-07T04:47:37.648Z,24.10
2023-01-07T04:50:39.839Z,25.88
2023-01-07T04:53:42.703Z,26.23
2023-01-07T04:56:45.770Z,26.35
2023-01-07T04:59:48.571Z,28.33
2023-01-07T05:02:50.891Z,26.52
2023-01-07T05:05:53.585Z,24.65
2023-01-07T05:08:56.197Z,24.60
2023-01-07T05:11:58.791Z,23.90
2023-01-07T05:15:02.493Z,23.20
2023-01-07T05:18:05.508Z,23.25
2023-01-07T05:21:10.498Z,22.55
2023-01-07T05:24:13.569Z,24.05
2023-01-07T05:27:15.960Z,23.83
2023-01-07T05:30:18.493Z,22.92
2023-01-07T05:33:20.878Z,23.17
2023-01-07T05:36:23.522Z,21.65
2023-01-07T05:39:26.307Z,20.20
2023-01-07T05:42:29.436Z,21.92
2023-01-07T05:45:31.667Z,20.52
2023-01-07T05:48:34.232Z,19.75
2023-01-07T05:51:36.523Z,19.48
2023-01-07T05:54:39.012Z,18.25
2023-01-07T05:57:41.264Z,17.10
2023-01-07T06:00:44.004Z,16.92
2023-01-07T06:03:46.593Z,17.33
2023-01-07T06:06:48.809Z,17.20
2023-01-07T06:09:51.265Z,17.10
2023-01-07T06:12:53.534Z,17.00
2023-01-07T06:16:08.440Z,16.30
2023-01-07T06:19:11.312Z,16.30
2023-01-07T06:22:14.677Z,15.77
2023-01-07T06:25:17.271Z,15.40
2023-01-07T06:28:20.362Z,16.50
2023-01-07T06:31:22.837Z,16.58
2023-01-07T06:34:25.469Z,15.55
2023-01-07T06:37:27.736Z,15.65
2023-01-07T06:40:30.479Z,14.85
2023-01-07T06:43:32.985Z,15.65
2023-01-07T06:46:36.008Z,15.15
2023-01-07T06:49:38.297Z,15.32
2023-01-07T06:52:40.819Z,14.75
2023-01-07T06:55:48.921Z,15.52
2023-01-07T06:58:51.427Z,18.42
2023-01-07T07:01:53.834Z,15.32
2023-01-07T07:04:56.451Z,17.90
2023-01-07T07:08:00.283Z,15.07
2023-01-07T07:11:02.890Z,15.93
2023-01-07T07:14:05.255Z,17.60
2023-01-07T07:17:07.820Z,17.85
2023-01-07T07:20:10.783Z,17.20
2023-01-07T07:23:13.461Z,16.95
2023-01-07T07:26:15.708Z,16.85
2023-01-07T07:29:19.285Z,16.40
2023-01-07T07:32:28.237Z,18.33
2023-01-07T07:35:31.317Z,19.17
2023-01-07T07:38:33.549Z,19.77
2023-01-07T07:41:36.026Z,20.58
2023-01-07T07:44:40.678Z,20.62
2023-01-07T07:47:43.563Z,20.35
2023-01-07T07:50:50.783Z,18.85
2023-01-07T07:53:53.424Z,17.25
2023-01-07T07:56:56.141Z,18.20
2023-01-07T07:59:58.705Z,17.40
2023-01-07T08:03:01.440Z,18.95
2023-01-07T08:06:05.327Z,17.52
2023-01-07T08:09:07.710Z,18.87
2023-01-07T08:12:10.224Z,18.25
2023-01-07T08:15:12.758Z,18.42
2023-01-07T08:18:15.343Z,17.48
2023-01-07T08:21:17.757Z,17.30
2023-01-07T08:24:20.252Z,16.45
2023-01-07T08:27:22.935Z,17.12
2023-01-07T08:30:26.319Z,16.95
2023-01-07T08:33:28.529Z,16.52
2023-01-07T08:36:31.058Z,16.67
2023-01-07T08:39:33.245Z,16.77
2023-01-07T08:42:35.721Z,16.25
2023-01-07T08:45:38.070Z,16.12
2023-01-07T08:48:40.591Z,16.40
2023-01-07T08:51:42.804Z,17.20
2023-01-07T08:54:47.950Z,17.65
2023-01-07T08:57:51.406Z,18.30
2023-01-07T09:00:53.995Z,16.98
2023-01-07T09:03:56.259Z,17.95
2023-01-07T09:06:58.746Z,18.23
2023-01-07T09:10:00.978Z,16.42
2023-01-07T09:13:03.500Z,16.42
2023-01-07T09:16:06.519Z,16.62
2023-01-07T09:19:09.182Z,16.70
2023-01-07T09:22:11.501Z,17.67
2023-01-07T09:25:14.038Z,19.52
2023-01-07T09:28:16.347Z,21.02
2023-01-07T09:31:19.033Z,21.20
2023-01-07T09:34:21.339Z,21.98
2023-01-07T09:37:23.976Z,21.27
2023-01-07T09:40:30.604Z,20.88
2023-01-07T09:43:59.864Z,20.52
2023-01-07T09:47:05.626Z,20.97
2023-01-07T09:50:24.922Z,17.80
2023-01-07T09:53:38.989Z,17.90
2023-01-07T09:56:41.841Z,18.33
2023-01-07T09:59:45.116Z,17.45
2023-01-07T10:03:09.229Z,16.75
2023-01-07T10:06:16.239Z,16.10
2023-01-07T10:09:21.226Z,15.65
2023-01-07T10:12:33.181Z,16.20
2023-01-07T10:16:05.045Z,17.45
2023-01-07T10:19:42.794Z,16.92
2023-01-07T10:22:52.043Z,16.98
2023-01-07T10:25:57.461Z,17.65
2023-01-07T10:29:12.746Z,18.20
2023-01-07T10:32:17.717Z,18.30
2023-01-07T10:35:23.586Z,17.75
2023-01-07T10:38:29.330Z,18.00
2023-01-07T10:42:17.244Z,17.83
2023-01-07T10:45:41.649Z,15.45
2023-01-07T10:49:10.285Z,14.90
2023-01-07T10:52:27.012Z,15.02
2023-01-07T10:55:39.462Z,16.42
2023-01-07T10:58:43.914Z,16.35
2023-01-07T11:01:51.851Z,16.98
2023-01-07T11:04:56.348Z,16.80
2023-01-07T11:08:01.629Z,16.90
2023-01-07T11:11:05.455Z,18.35
2023-01-07T11:14:15.266Z,18.20
2023-01-07T11:17:32.719Z,17.47
2023-01-07T11:20:55.728Z,18.83
2023-01-07T11:23:58.761Z,18.60
2023-01-07T11:27:23.277Z,18.85
2023-01-07T11:30:33.472Z,18.48
2023-01-07T11:34:01.511Z,18.20
2023-01-07T11:37:06.867Z,18.40
2023-01-07T11:40:15.017Z,18.02
2023-01-07T11:43:17.424Z,17.95
2023-01-07T11:46:24.514Z,17.08
2023-01-07T11:49:30.799Z,17.58
2023-01-07T11:52:33.043Z,18.12
2023-01-07T11:55:35.571Z,18.73
2023-01-07T11:58:38.862Z,19.27
2023-01-07T12:01:44.138Z,18.05
2023-01-07T12:04:46.608Z,18.45
2023-01-07T12:07:51.303Z,20.40
2023-01-07T12:10:56.060Z,19.67
2023-01-07T12:14:20.629Z,19.25
2023-01-07T12:17:25.149Z,20.45
2023-01-07T12:20:51.262Z,19.35
2023-01-07T12:24:09.455Z,19.05
2023-01-07T12:27:22.486Z,18.85
2023-01-07T12:30:54.560Z,17.92
2023-01-07T12:34:21.666Z,18.62
2023-01-07T12:37:29.892Z,18.70
2023-01-07T12:40:34.441Z,17.60
2023-01-07T12:43:48.006Z,16.92
2023-01-07T12:47:32.507Z,17.40
2023-01-07T12:50:44.437Z,17.70
2023-01-07T12:53:52.964Z,16.25
2023-01-07T12:57:02.355Z,16.25
2023-01-07T13:00:21.410Z,15.27
2023-01-07T13:03:55.251Z,16.05
2023-01-07T13:07:17.575Z,17.10
2023-01-07T13:10:33.694Z,18.52
2023-01-07T13:13:49.141Z,16.77
2023-01-07T13:16:51.692Z,17.60
2023-01-07T13:19:54.470Z,17.05
2023-01-07T13:22:58.463Z,17.37
2023-01-07T13:26:20.504Z,17.83
2023-01-07T13:29:28.920Z,16.77
2023-01-07T13:32:47.790Z,16.15
2023-01-07T13:36:16.814Z,16.55
2023-01-07T13:39:33.703Z,17.10
2023-01-07T13:43:03.639Z,15.85
2023-01-07T13:46:12.428Z,16.08
2023-01-07T13:49:30.101Z,16.15
2023-01-07T13:52:34.245Z,16.08
2023-01-07T13:55:39.768Z,15.07
2023-01-07T13:58:45.167Z,15.38
2023-01-07T14:02:18.658Z,14.52
2023-01-07T14:05:29.863Z,12.30
2023-01-07T14:08:32.136Z,12.45
2023-01-07T14:11:36.031Z,13.23
2023-01-07T14:14:59.520Z,12.88
2023-01-07T14:18:43.783Z,13.15
2023-01-07T14:22:16.294Z,11.98
2023-01-07T14:25:45.143Z,12.98
2023-01-07T14:29:14.931Z,12.55
2023-01-07T14:32:37.644Z,14.30
2023-01-07T14:35:42.662Z,15.57
2023-01-07T14:38:46.924Z,16.20
2023-01-07T14:42:20.261Z,15.65
2023-01-07T14:45:41.301Z,14.35
2023-01-07T14:48:43.447Z,15.40
2023-01-07T14:52:08.236Z,14.93
2023-01-07T14:56:12.624Z,14.45
2023-01-07T14:59:59.895Z,14.25
2023-01-07T15:03:39.664Z,14.13
2023-01-07T15:06:43.295Z,14.25
2023-01-07T15:10:39.203Z,16.23
2023-01-07T15:14:08.466Z,15.65
2023-01-07T15:17:14.253Z,16.55
2023-01-07T15:20:16.916Z,17.12
2023-01-07T15:23:39.052Z,17.05
2023-01-07T15:26:41.415Z,16.92
2023-01-07T15:30:17.833Z,18.50
2023-01-07T15:33:39.764Z,18.62
2023-01-07T15:36:45.389Z,18.37
2023-01-07T15:39:57.937Z,18.45
2023-01-07T15:43:00.521Z,19.00
2023-01-07T15:46:06.359Z,20.00
2023-01-07T15:49:08.496Z,19.75
2023-01-07T15:52:22.909Z,20.12
2023-01-07T15:55:30.525Z,20.05
2023-01-07T15:58:40.321Z,20.75
2023-01-07T16:01:48.419Z,22.62
2023-01-07T16:04:57.467Z,22.52
2023-01-07T16:08:01.306Z,22.45
2023-01-07T16:11:21.885Z,23.75
2023-01-07T16:14:26.441Z,24.70
2023-01-07T16:17:28.956Z,23.65
2023-01-07T16:20:37.495Z,24.45
2023-01-07T16:23:40.795Z,24.73
2023-01-07T16:26:49.495Z,26.30
2023-01-07T16:29:54.776Z,24.40
2023-01-07T16:32:57.601Z,24.73
2023-01-07T16:36:04.245Z,25.27
2023-01-07T16:39:18.018Z,26.40
2023-01-07T16:42:24.895Z,25.70
2023-01-07T16:45:32.658Z,26.12
2023-01-07T16:48:35.143Z,25.95
2023-01-07T16:51:59.174Z,24.52
2023-01-07T16:55:01.645Z,24.33
2023-01-07T16:58:03.837Z,23.67
2023-01-07T17:01:07.325Z,24.52
2023-01-07T17:04:18.283Z,25.08
2023-01-07T17:07:28.419Z,23.90
2023-01-07T17:10:36.248Z,23.17
2023-01-07T17:13:39.588Z,24.67
2023-01-07T17:16:42.039Z,28.27
2023-01-07T17:20:22.377Z,26.75
2023-01-07T17:23:27.379Z,26.60
2023-01-07T17:26:31.066Z,25.45
2023-01-07T17:29:43.333Z,27.25
2023-01-07T17:32:47.467Z,26.48
2023-01-07T17:35:50.500Z,27.80
2023-01-07T17:38:53.629Z,26.92
2023-01-07T17:42:14.856Z,27.00
2023-01-07T17:45:19.783Z,28.02
2023-01-07T17:48:22.104Z,29.70
2023-01-07T17:51:26.427Z,29.00
2023-01-07T17:54:28.615Z,30.15
2023-01-07T17:57:31.075Z,30.85
2023-01-07T18:00:35.935Z,28.17
2023-01-07T18:03:38.718Z,30.02
2023-01-07T18:06:43.056Z,29.15
2023-01-07T18:09:45.616Z,28.52
2023-01-07T18:12:48.129Z,30.42
2023-01-07T18:15:50.560Z,28.33
2023-01-07T18:18:53.475Z,29.77
2023-01-07T18:21:55.978Z,29.45
2023-01-07T18:24:58.141Z,28.62
2023-01-07T18:28:00.582Z,30.20
2023-01-07T18:31:02.785Z,29.48
2023-01-07T18:34:05.213Z,29.92
2023-01-07T18:37:07.456Z,29.73
2023-01-07T18:40:10.260Z,30.75
2023-01-07T18:43:14.958Z,30.17
2023-01-07T18:46:17.793Z,30.48
2023-01-07T18:49:20.367Z,30.80
2023-01-07T18:52:22.825Z,31.02
2023-01-07T18:55:26.942Z,30.83
2023-01-07T18:58:29.429Z,32.53
2023-01-07T19:01:31.817Z,31.90
2023-01-07T19:04:37.431Z,31.10
2023-01-07T19:07:41.302Z,31.55
2023-01-07T19:10:45.047Z,32.33
2023-01-07T19:13:47.270Z,31.70
2023-01-07T19:16:50.735Z,31.00
2023-01-07T19:19:52.949Z,31.90
2023-01-07T19:23:00.240Z,30.37
2023-01-07T19:26:05.687Z,29.55
2023-01-07T19:29:08.705Z,30.80
2023-01-07T19:32:10.839Z,31.20
2023-01-07T19:35:13.479Z,31.40
2023-01-07T19:38:16.500Z,30.12
2023-01-07T19:41:20.565Z,30.02
2023-01-07T19:44:22.831Z,29.73
2023-01-07T19:47:25.346Z,29.58
2023-01-07T19:50:27.519Z,31.48
2023-01-07T19:53:31.094Z,29.77
2023-01-07T19:56:34.447Z,30.67
2023-01-07T19:59:36.936Z,29.85
2023-01-07T20:02:39.098Z,30.27
2023-01-07T20:05:41.540Z,28.98
2023-01-07T20:08:44.398Z,29.23
2023-01-07T20:11:47.196Z,28.15
2023-01-07T20:14:49.368Z,28.38
2023-01-07T20:17:51.872Z,27.98
2023-01-07T20:20:57.837Z,27.67
2023-01-07T20:24:00.470Z,29.52
2023-01-07T20:27:03.216Z,28.35
2023-01-07T20:30:08.045Z,28.40
2023-01-07T20:33:10.246Z,29.92
2023-01-07T20:36:15.240Z,29.45
2023-01-07T20:39:17.538Z,28.48
2023-01-07T20:42:20.230Z,30.05
2023-01-07T20:45:22.418Z,28.67
2023-01-07T20:48:25.024Z,30.27
2023-01-07T20:51:27.632Z,29.30
2023-01-07T20:54:30.083Z,27.48
2023-01-07T20:57:32.236Z,29.40
2023-01-07T21:00:35.002Z,29.30
2023-01-07T21:03:38.829Z,29.40
2023-01-07T21:06:41.572Z,30.23
2023-01-07T21:09:44.864Z,29.23
2023-01-07T21:12:47.353Z,30.80
2023-01-07T21:15:50.173Z,31.37
2023-01-07T21:18:52.659Z,29.87
2023-01-07T21:21:54.983Z,30.02
2023-01-07T21:24:57.486Z,30.50
2023-01-07T21:27:59.685Z,31.58
2023-01-07T21:31:06.052Z,30.88
2023-01-07T21:34:09.971Z,31.67
2023-01-07T21:37:12.706Z,32.72
2023-01-07T21:40:15.244Z,31.95
2023-01-07T21:43:17.665Z,31.67
2023-01-07T21:46:22.520Z,30.73
2023-01-07T21:49:25.232Z,32.05
2023-01-07T21:52:27.536Z,33.20
2023-01-07T21:55:29.958Z,33.25
2023-01-07T21:58:32.327Z,33.22
2023-01-07T22:01:35.026Z,32.75
2023-01-07T22:04:40.615Z,32.45
2023-01-07T22:07:42.782Z,32.60
2023-01-07T22:10:48.491Z,33.88
2023-01-07T22:13:55.572Z,31.80
2023-01-07T22:16:58.302Z,33.40
2023-01-07T22:20:00.672Z,32.08
2023-01-07T22:23:03.200Z,34.63
2023-01-07T22:26:07.726Z,33.80
2023-01-07T22:29:10.444Z,33.13
2023-01-07T22:32:12.624Z,34.20
2023-01-07T22:35:15.092Z,34.13
2023-01-07T22:38:20.830Z,34.70
2023-01-07T22:41:24.670Z,34.90
2023-01-07T22:44:37.207Z,36.45
2023-01-07T22:47:45.277Z,36.75
2023-01-07T22:50:47.692Z,34.78
2023-01-07T22:53:52.356Z,36.22
2023-01-07T22:56:54.790Z,34.70
2023-01-07T22:59:59.038Z,35.88
2023-01-07T23:03:01.313Z,35.40
2023-01-07T23:06:04.439Z,36.42
2023-01-07T23:09:06.627Z,35.85
2023-01-07T23:12:11.058Z,36.78
2023-01-07T23:15:13.333Z,35.10
2023-01-07T23:18:16.287Z,34.78
2023-01-07T23:21:18.603Z,36.03
2023-01-07T23:24:22.488Z,35.97
2023-01-07T23:27:24.650Z,37.55
2023-01-07T23:30:27.100Z,36.75
2023-01-07T23:33:29.252Z,36.85
2023-01-07T23:36:31.766Z,36.83
2023-01-07T23:39:33.943Z,35.78
2023-01-07T23:42:36.525Z,38.20
2023-01-07T23:45:38.801Z,36.92
2023-01-07T23:48:41.339Z,35.83
2023-01-07T23:51:43.503Z,34.28
2023-01-07T23:54:46.255Z,34.53
2023-01-07T23:57:48.468Z,34.72
